createdAt,value
2018-05-11T00:02:45.810Z,98604.38
2018-05-11T00:23:21.173Z,98609.75
2018-05-11T00:43:56.668Z,98599.57
2018-05-11T01:04:32.542Z,98613.97
2018-05-11T01:25:08.043Z,98609.13
2018-05-11T01:45:41.862Z,98606.86
2018-05-11T02:06:17.499Z,98614.95
2018-05-11T02:26:51.482Z,98617.19
2018-05-11T02:47:29.132Z,98611.02
2018-05-11T03:08:04.204Z,98612.55
2018-05-11T03:28:36.398Z,98612.98
2018-05-11T03:49:09.503Z,98623.66
2018-05-11T04:09:43.547Z,98617.63
2018-05-11T04:30:18.908Z,98637.86
2018-05-11T04:50:55.625Z,98650.28
2018-05-11T05:11:29.357Z,98649.16
2018-05-11T05:32:02.482Z,98644.98
2018-05-11T05:52:37.756Z,98646.33
2018-05-11T06:13:17.263Z,98632.73
2018-05-11T06:33:50.144Z,98630.42
2018-05-11T06:54:25.411Z,98622.67
2018-05-11T07:15:02.533Z,98609.25
2018-05-11T07:53:36.016Z,98599.39
2018-05-11T08:14:13.265Z,98577.97
2018-05-11T08:34:46.942Z,98549.72
2018-05-11T08:55:21.295Z,98533.94
2018-05-11T09:15:56.566Z,98517.91
2018-05-11T09:36:31.838Z,98514.05
2018-05-11T09:57:08.032Z,98494.64
2018-05-11T10:17:45.457Z,98480.83
2018-05-11T10:38:20.757Z,98472.11
2018-05-11T10:58:59.688Z,98441.55
2018-05-11T11:19:31.885Z,98430.55
2018-05-11T11:40:04.094Z,98401.80
2018-05-11T12:00:36.284Z,98393.13
2018-05-11T12:21:06.642Z,98378.95
2018-05-11T12:41:44.073Z,98363.47
2018-05-11T13:02:15.952Z,98349.08
2018-05-11T13:22:53.519Z,98341.36
2018-05-11T13:43:28.344Z,98334.77
2018-05-11T14:04:00.848Z,98315.77
2018-05-11T14:24:34.899Z,98303.64
2018-05-11T14:45:12.426Z,98293.42
2018-05-11T15:05:45.441Z,98278.89
2018-05-11T15:26:20.873Z,98266.69
2018-05-11T15:46:54.752Z,98240.73
2018-05-11T16:07:30.948Z,98228.34
2018-05-11T16:28:04.375Z,98231.59
2018-05-11T16:48:38.753Z,98223.65
2018-05-11T17:09:12.772Z,98207.78
2018-05-11T17:29:48.957Z,98206.02
2018-05-11T17:50:21.163Z,98206.68
2018-05-11T18:10:57.356Z,98227.24
2018-05-11T18:31:34.779Z,98243.04
2018-05-11T18:52:11.899Z,98251.56
2018-05-11T19:12:46.367Z,98264.49
2018-05-11T19:33:20.296Z,98291.02
2018-05-11T19:53:54.641Z,98312.73
2018-05-11T20:14:30.529Z,98321.25
2018-05-11T20:35:07.028Z,98336.11
2018-05-11T20:55:42.529Z,98331.77
2018-05-11T21:16:15.423Z,98339.52
2018-05-11T21:36:49.772Z,98343.44
2018-05-11T21:57:25.970Z,98347.22
2018-05-11T22:18:02.158Z,98341.63
2018-05-11T22:38:39.697Z,98350.70
2018-05-11T22:59:13.633Z,98349.84
2018-05-11T23:19:50.737Z,98342.20
2018-05-11T23:40:23.871Z,98331.58
